Time;durP1;ratioP1;P1;durP2;ratioP2;P2;SDS_P1;SDS_P2;PMS_P1;PMS_P2;Temp;Humidity;BMP_temperature;BMP_pressure;BME280_temperature;BME280_humidity;BME280_pressure;Samples;Min_cycle;Max_cycle;Signal;HPM_P1;HPM_P2
2023/06/03 00:01:05;;;;;;;7.03;3.23;;;16.50;98.00;;;;;;5037704;28;20472;-68
2023/06/03 00:03:33;;;;;;;6.50;3.10;;;16.30;98.00;;;;;;5037709;28;20468;-67
2023/06/03 00:06:00;;;;;;;10.50;2.97;;;16.20;98.00;;;;;;5055399;28;20520;-67
2023/06/03 00:08:27;;;;;;;14.13;3.00;;;16.00;98.00;;;;;;5055189;28;20453;-66
2023/06/03 00:10:56;;;;;;;6.00;3.10;;;15.90;98.00;;;;;;5055445;28;20963;-67
2023/06/03 00:13:24;;;;;;;5.40;2.83;;;16.00;98.00;;;;;;5037413;28;20469;-68
2023/06/03 00:15:52;;;;;;;5.30;2.87;;;16.00;98.00;;;;;;5055107;28;20481;-66
2023/06/03 00:18:19;;;;;;;5.30;2.70;;;16.10;98.00;;;;;;5055191;28;20450;-67
2023/06/03 00:20:47;;;;;;;9.43;3.03;;;16.10;98.00;;;;;;5055412;28;20896;-68
2023/06/03 00:23:15;;;;;;;6.80;3.40;;;16.10;98.00;;;;;;5055229;28;20450;-67
2023/06/03 00:25:44;;;;;;;5.10;2.87;;;16.10;98.00;;;;;;5054020;28;20497;-66
2023/06/03 00:28:11;;;;;;;7.77;3.30;;;15.90;98.00;;;;;;5055258;28;20460;-66
2023/06/03 00:30:38;;;;;;;4.50;2.73;;;16.00;98.00;;;;;;5055061;28;20458;-66
2023/06/03 00:33:06;;;;;;;9.80;4.17;;;15.90;98.00;;;;;;5037268;28;20460;-67
2023/06/03 00:35:34;;;;;;;6.23;3.30;;;15.70;98.00;;;;;;5054762;28;20484;-68
2023/06/03 00:38:01;;;;;;;6.40;3.00;;;15.60;98.00;;;;;;5054693;28;20489;-68
2023/06/03 00:40:31;;;;;;;7.60;3.40;;;15.70;98.00;;;;;;5054535;28;20461;-67
2023/06/03 00:42:58;;;;;;;9.77;3.03;;;15.60;98.00;;;;;;5054566;28;20861;-66
2023/06/03 00:45:26;;;;;;;7.33;3.67;;;15.50;98.00;;;;;;5054502;28;20465;-69
2023/06/03 00:47:53;;;;;;;5.57;3.20;;;15.10;98.00;;;;;;5054449;28;21200;-68
2023/06/03 00:50:22;;;;;;;6.60;2.90;;;15.10;98.00;;;;;;5054526;28;20986;-67
2023/06/03 00:52:50;;;;;;;9.80;3.50;;;15.20;98.00;;;;;;5054138;28;20465;-66
2023/06/03 00:55:18;;;;;;;4.87;2.80;;;15.00;98.00;;;;;;5054296;28;20485;-67
2023/06/03 00:57:46;;;;;;;6.73;3.13;;;15.00;98.00;;;;;;5054364;28;20453;-68
2023/06/03 01:00:13;;;;;;;7.80;3.40;;;15.00;98.00;;;;;;5036722;28;20450;-67
2023/06/03 01:02:43;;;;;;;8.93;3.10;;;14.70;98.00;;;;;;5054399;28;20458;-67
2023/06/03 01:05:11;;;;;;;5.90;3.10;;;14.70;98.00;;;;;;5054431;28;20489;-67
2023/06/03 01:07:52;;;;;;;7.13;3.20;;;14.50;98.00;;;;;;5054255;28;20458;-66
2023/06/03 01:10:24;;;;;;;7.07;3.17;;;14.40;98.00;;;;;;5054351;28;20457;-67
2023/06/03 01:12:59;;;;;;;4.43;2.63;;;14.30;98.00;;;;;;5054171;28;20806;-67
2023/06/03 01:15:28;;;;;;;6.53;2.63;;;14.30;98.00;;;;;;5054165;28;20485;-66
2023/06/03 01:18:00;;;;;;;5.37;2.63;;;14.50;98.00;;;;;;5054130;28;20453;-67
2023/06/03 01:20:28;;;;;;;6.23;3.17;;;14.50;98.00;;;;;;5054141;28;20457;-66
2023/06/03 01:23:05;;;;;;;12.50;3.77;;;14.50;98.00;;;;;;5053813;28;20462;-66
2023/06/03 01:25:32;;;;;;;5.10;2.60;;;14.40;98.00;;;;;;5054006;28;20458;-66
2023/06/03 01:28:00;;;;;;;9.10;3.23;;;14.40;98.00;;;;;;5053739;28;20875;-67
2023/06/03 01:30:27;;;;;;;5.40;3.20;;;14.50;98.00;;;;;;5053830;28;20450;-67
2023/06/03 01:32:54;;;;;;;6.00;3.43;;;14.50;98.00;;;;;;5053693;28;20458;-66
2023/06/03 01:35:22;;;;;;;4.90;2.80;;;14.40;98.00;;;;;;5053519;28;20492;-66
2023/06/03 01:37:51;;;;;;;6.10;2.70;;;14.30;98.00;;;;;;5053706;28;20454;-68
2023/06/03 01:40:21;;;;;;;7.57;3.63;;;14.30;98.00;;;;;;5035283;28;20468;-66
2023/06/03 01:42:48;;;;;;;5.23;3.10;;;14.30;98.00;;;;;;5053562;28;20454;-66
2023/06/03 01:45:16;;;;;;;5.00;3.20;;;14.30;98.00;;;;;;5053479;28;20467;-66
2023/06/03 01:47:43;;;;;;;4.67;2.90;;;14.20;98.00;;;;;;5053548;28;20458;-67
2023/06/03 01:50:11;;;;;;;4.30;2.60;;;14.20;98.00;;;;;;5036067;28;20458;-66
2023/06/03 01:52:41;;;;;;;6.30;3.30;;;14.30;98.00;;;;;;5053261;28;20457;-66
2023/06/03 01:55:09;;;;;;;5.83;3.00;;;14.30;98.00;;;;;;5036175;28;20458;-67
2023/06/03 01:57:39;;;;;;;6.83;3.13;;;14.10;98.00;;;;;;5051807;28;20453;-67
2023/06/03 02:00:07;;;;;;;6.67;2.93;;;14.00;98.00;;;;;;5053251;28;20491;-67
2023/06/03 02:02:34;;;;;;;6.20;3.07;;;13.90;98.00;;;;;;5052890;28;20529;-66
2023/06/03 02:05:03;;;;;;;7.83;3.20;;;13.80;98.00;;;;;;5034743;28;20461;-66
2023/06/03 02:07:33;;;;;;;4.93;3.37;;;13.80;98.00;;;;;;5035786;28;20461;-66
2023/06/03 02:10:00;;;;;;;8.00;3.23;;;13.80;98.00;;;;;;5053089;28;20955;-66
2023/06/03 02:12:27;;;;;;;16.40;3.20;;;13.70;98.00;;;;;;5053030;28;20476;-66
2023/06/03 02:14:56;;;;;;;9.53;3.03;;;13.70;98.00;;;;;;5053082;28;20485;-66
2023/06/03 02:17:26;;;;;;;5.70;3.10;;;13.50;98.00;;;;;;5052983;28;20482;-67
2023/06/03 02:19:54;;;;;;;5.33;2.87;;;13.50;98.00;;;;;;5053282;28;20449;-67
2023/06/03 02:22:23;;;;;;;6.90;3.47;;;13.40;98.00;;;;;;5052870;28;20516;-67
2023/06/03 02:24:50;;;;;;;5.67;3.03;;;13.40;98.00;;;;;;5034973;28;20488;-67
2023/06/03 02:27:24;;;;;;;7.50;3.80;;;13.30;98.00;;;;;;5052688;28;20458;-67
2023/06/03 02:29:52;;;;;;;7.07;3.13;;;13.20;98.00;;;;;;5052517;28;20465;-67
2023/06/03 02:32:22;;;;;;;5.73;3.20;;;13.20;98.00;;;;;;5052495;28;20457;-67
2023/06/03 02:34:50;;;;;;;9.17;3.30;;;13.20;98.00;;;;;;5052412;28;20541;-66
2023/06/03 02:37:17;;;;;;;5.60;2.87;;;13.20;98.00;;;;;;5052333;28;20850;-66
2023/06/03 02:39:44;;;;;;;5.10;3.00;;;13.30;98.00;;;;;;5052315;28;20973;-67
2023/06/03 02:42:12;;;;;;;6.70;3.40;;;13.40;98.00;;;;;;5052617;28;20471;-66
2023/06/03 02:44:39;;;;;;;5.27;3.10;;;13.30;98.00;;;;;;5052312;28;20936;-67
2023/06/03 02:47:07;;;;;;;5.13;2.60;;;13.30;98.00;;;;;;5052490;28;20461;-66
2023/06/03 02:49:38;;;;;;;13.33;3.57;;;13.30;98.00;;;;;;5052286;28;20465;-67
2023/06/03 02:52:06;;;;;;;5.70;3.10;;;13.20;98.00;;;;;;5052376;28;20461;-66
2023/06/03 02:54:33;;;;;;;6.20;2.87;;;13.20;98.00;;;;;;5034643;28;20468;-68
2023/06/03 02:57:00;;;;;;;5.53;2.80;;;13.20;98.00;;;;;;5052374;28;20547;-66
2023/06/03 02:59:27;;;;;;;4.13;2.97;;;13.20;98.00;;;;;;5052259;28;20469;-66
2023/06/03 03:01:54;;;;;;;7.37;3.43;;;13.20;98.00;;;;;;5052166;28;20469;-67
2023/06/03 03:04:22;;;;;;;7.80;3.40;;;13.40;98.00;;;;;;5052097;28;20454;-66
2023/06/03 03:06:50;;;;;;;8.77;3.60;;;13.30;98.00;;;;;;5052036;28;20985;-66
2023/06/03 03:09:18;;;;;;;5.93;3.20;;;13.10;98.00;;;;;;5052038;28;20458;-66
2023/06/03 03:11:45;;;;;;;6.40;3.50;;;13.00;98.00;;;;;;5052246;28;20449;-67
2023/06/03 03:14:15;;;;;;;9.17;3.53;;;13.00;98.00;;;;;;5052151;28;20465;-67
2023/06/03 03:16:42;;;;;;;5.13;3.07;;;13.10;98.00;;;;;;5051792;28;20861;-66
2023/06/03 03:19:10;;;;;;;5.60;2.73;;;13.00;98.00;;;;;;5051876;28;20507;-66
2023/06/03 03:21:37;;;;;;;8.10;2.87;;;13.10;98.00;;;;;;5051472;28;20457;-66
2023/06/03 03:24:07;;;;;;;5.20;3.00;;;13.20;98.00;;;;;;5051764;28;20944;-66
2023/06/03 03:26:35;;;;;;;3.80;2.63;;;13.10;98.00;;;;;;5051633;28;20903;-66
2023/06/03 03:29:02;;;;;;;6.87;3.17;;;13.10;98.00;;;;;;5051822;28;20826;-65
2023/06/03 03:31:29;;;;;;;5.37;3.13;;;12.90;98.00;;;;;;5051624;28;20485;-67
2023/06/03 03:33:56;;;;;;;7.40;3.43;;;12.80;98.00;;;;;;5051667;28;20480;-67
2023/06/03 03:36:24;;;;;;;6.13;3.20;;;12.90;98.00;;;;;;5051437;28;20481;-66
2023/06/03 03:38:57;;;;;;;5.40;2.87;;;12.60;98.00;;;;;;5051568;28;20454;-66
2023/06/03 03:41:25;;;;;;;5.70;2.93;;;12.80;98.00;;;;;;5051683;28;20820;-67
2023/06/03 03:43:52;;;;;;;5.37;3.20;;;12.80;98.00;;;;;;5051352;28;20486;-66
2023/06/03 03:46:20;;;;;;;7.03;3.17;;;12.80;98.00;;;;;;5051686;28;20511;-66
2023/06/03 03:48:48;;;;;;;5.70;2.50;;;12.70;98.00;;;;;;5051781;28;20455;-68
2023/06/03 03:51:16;;;;;;;5.97;3.43;;;12.50;98.00;;;;;;5033960;28;20511;-66
2023/06/03 03:53:45;;;;;;;5.77;3.37;;;12.50;98.00;;;;;;5051640;28;20461;-66
2023/06/03 03:56:20;;;;;;;5.10;2.93;;;12.60;98.00;;;;;;5051729;28;20494;-67
2023/06/03 03:58:49;;;;;;;5.50;3.30;;;12.70;98.00;;;;;;5051697;28;20453;-67
2023/06/03 04:01:18;;;;;;;5.07;3.13;;;12.70;98.00;;;;;;5034234;28;20460;-66
2023/06/03 04:03:46;;;;;;;5.83;3.03;;;12.70;98.00;;;;;;5051758;28;20782;-68
2023/06/03 04:06:15;;;;;;;7.67;3.23;;;12.70;98.00;;;;;;5051667;28;20454;-67
2023/06/03 04:08:45;;;;;;;4.20;3.10;;;12.60;98.00;;;;;;5051753;28;20453;-65
2023/06/03 04:11:20;;;;;;;5.63;3.10;;;12.70;98.00;;;;;;5051582;28;20552;-65
2023/06/03 04:13:50;;;;;;;11.00;3.20;;;12.70;98.00;;;;;;5051334;28;20969;-66
2023/06/03 04:16:46;;;;;;;6.67;3.30;;;12.70;98.00;;;;;;5051356;28;20477;-66
2023/06/03 04:19:15;;;;;;;5.20;3.03;;;12.70;98.00;;;;;;5051209;28;20951;-66
2023/06/03 04:21:43;;;;;;;5.67;2.90;;;12.90;98.00;;;;;;5034087;28;20503;-66
2023/06/03 04:24:10;;;;;;;6.30;3.53;;;12.90;98.00;;;;;;5033248;28;20939;-66
2023/06/03 04:26:41;;;;;;;7.07;3.30;;;12.90;98.00;;;;;;5051258;28;21171;-67
2023/06/03 04:29:09;;;;;;;7.40;3.47;;;12.70;98.00;;;;;;5053470;28;20501;-67
2023/06/03 04:31:39;;;;;;;4.30;2.90;;;12.90;98.00;;;;;;5054276;28;20449;-66
2023/06/03 04:34:06;;;;;;;4.20;2.90;;;13.00;98.00;;;;;;5054070;28;20979;-66
2023/06/03 04:36:33;;;;;;;6.50;3.60;;;13.20;98.00;;;;;;5054009;28;20485;-67
2023/06/03 04:39:00;;;;;;;5.73;3.43;;;13.20;98.00;;;;;;5054196;28;20453;-66
2023/06/03 04:41:28;;;;;;;4.87;3.17;;;13.50;98.00;;;;;;5036264;28;20530;-67
2023/06/03 04:43:55;;;;;;;5.97;3.30;;;13.40;98.00;;;;;;5054690;28;20544;-67
2023/06/03 04:46:29;;;;;;;6.00;2.73;;;13.40;98.00;;;;;;5054650;28;20970;-66
2023/06/03 04:48:57;;;;;;;9.30;3.27;;;13.50;98.00;;;;;;5054917;28;20519;-66
2023/06/03 04:51:27;;;;;;;11.37;3.20;;;13.60;98.00;;;;;;5054697;28;20461;-66
2023/06/03 04:53:56;;;;;;;6.20;3.93;;;13.60;98.00;;;;;;5054710;28;20481;-67
2023/06/03 04:56:24;;;;;;;5.37;3.43;;;13.60;98.00;;;;;;5054630;28;20481;-67
2023/06/03 04:58:54;;;;;;;6.37;3.33;;;13.40;98.00;;;;;;5054727;28;20462;-65
2023/06/03 05:01:24;;;;;;;6.33;3.70;;;13.30;98.00;;;;;;5054857;28;20461;-65
2023/06/03 05:03:51;;;;;;;4.70;3.00;;;13.40;98.00;;;;;;5054383;28;20848;-66
2023/06/03 05:06:19;;;;;;;4.97;2.77;;;13.60;98.00;;;;;;5054337;28;20493;-66
2023/06/03 05:08:47;;;;;;;7.27;3.90;;;13.60;98.00;;;;;;5054175;28;21058;-65
2023/06/03 05:11:15;;;;;;;6.30;3.27;;;13.80;98.00;;;;;;5054281;28;20450;-67
2023/06/03 05:13:42;;;;;;;5.20;3.07;;;14.00;98.00;;;;;;5053734;28;21034;-66
2023/06/03 05:16:09;;;;;;;5.87;3.50;;;14.10;98.00;;;;;;5054014;28;20462;-66
2023/06/03 05:18:39;;;;;;;5.17;3.20;;;14.10;98.00;;;;;;5053942;28;20457;-66
2023/06/03 05:21:06;;;;;;;6.23;3.43;;;14.20;98.00;;;;;;5053990;28;20468;-66
2023/06/03 05:23:33;;;;;;;8.40;3.40;;;14.30;98.00;;;;;;5053782;28;20461;-66
2023/06/03 05:26:00;;;;;;;7.03;3.40;;;14.40;98.00;;;;;;5053971;28;20465;-66
2023/06/03 05:28:28;;;;;;;8.53;3.80;;;14.50;98.00;;;;;;5053712;28;20453;-66
2023/06/03 05:30:55;;;;;;;5.97;3.10;;;14.50;98.00;;;;;;5036017;28;20978;-68
2023/06/03 05:33:27;;;;;;;7.90;3.70;;;14.70;98.00;;;;;;5035690;28;20636;-66
2023/06/03 05:35:55;;;;;;;13.30;3.80;;;14.80;98.00;;;;;;5053309;28;20454;-67
2023/06/03 05:38:23;;;;;;;9.77;3.87;;;14.80;98.00;;;;;;5053024;28;20528;-66
2023/06/03 05:40:51;;;;;;;6.07;3.40;;;15.00;98.00;;;;;;5051581;28;20464;-66
2023/06/03 05:43:18;;;;;;;8.23;3.60;;;15.10;98.00;;;;;;5052809;28;20520;-66
2023/06/03 05:45:46;;;;;;;5.73;3.17;;;15.10;98.00;;;;;;5052771;28;20458;-67
2023/06/03 05:48:14;;;;;;;10.13;4.37;;;15.20;98.00;;;;;;5052610;28;20466;-64
2023/06/03 05:50:49;;;;;;;8.17;4.00;;;15.30;98.00;;;;;;5052674;28;20491;-64
2023/06/03 05:53:21;;;;;;;11.70;3.80;;;15.50;98.00;;;;;;5052672;28;20445;-65
2023/06/03 05:55:48;;;;;;;6.00;3.40;;;15.60;98.00;;;;;;5035610;28;20947;-65
2023/06/03 05:58:16;;;;;;;6.30;3.20;;;15.80;98.00;;;;;;5052733;28;20489;-64
2023/06/03 06:00:43;;;;;;;6.20;3.30;;;15.90;98.00;;;;;;5052687;28;20507;-66
2023/06/03 06:03:11;;;;;;;6.13;3.47;;;15.80;98.00;;;;;;5052309;28;20966;-64
2023/06/03 06:05:38;;;;;;;6.33;3.30;;;15.80;98.00;;;;;;5052550;28;21006;-65
2023/06/03 06:08:08;;;;;;;6.40;3.47;;;15.90;98.00;;;;;;5052400;28;20480;-65
2023/06/03 06:10:36;;;;;;;13.23;3.20;;;16.00;98.00;;;;;;5052216;28;20453;-65
2023/06/03 06:13:03;;;;;;;6.47;3.10;;;16.10;98.00;;;;;;5034688;28;20878;-64
2023/06/03 06:15:31;;;;;;;6.87;3.00;;;16.10;98.00;;;;;;5052175;28;21016;-64
2023/06/03 06:17:58;;;;;;;5.27;3.00;;;16.10;98.00;;;;;;5052172;28;20481;-65
2023/06/03 06:20:25;;;;;;;6.83;3.70;;;16.20;98.00;;;;;;5034341;28;20454;-65
2023/06/03 06:22:53;;;;;;;7.47;3.60;;;16.30;98.00;;;;;;5034302;28;20458;-65
2023/06/03 06:25:23;;;;;;;5.97;3.20;;;16.50;98.00;;;;;;5051989;28;20876;-64
2023/06/03 06:27:52;;;;;;;5.40;3.13;;;16.50;98.00;;;;;;5052105;28;20462;-65
2023/06/03 06:30:21;;;;;;;15.60;3.90;;;16.50;98.00;;;;;;5051990;28;20466;-66
2023/06/03 06:32:50;;;;;;;6.30;3.33;;;16.70;98.00;;;;;;5051989;28;20449;-65
2023/06/03 06:35:18;;;;;;;6.90;3.43;;;16.80;98.00;;;;;;5051941;28;20868;-65
2023/06/03 06:37:47;;;;;;;5.80;3.27;;;16.80;98.00;;;;;;5052065;28;21045;-64
2023/06/03 06:40:19;;;;;;;6.90;3.40;;;16.90;98.00;;;;;;5051657;28;20986;-65
2023/06/03 06:42:46;;;;;;;16.60;3.40;;;17.00;98.00;;;;;;5051996;28;20894;-64
2023/06/03 06:45:22;;;;;;;6.67;3.20;;;17.10;98.00;;;;;;5051621;28;20457;-65
2023/06/03 06:47:49;;;;;;;8.60;3.63;;;17.10;98.00;;;;;;5059528;28;20496;-64
2023/06/03 06:50:36;;;;;;;5.30;3.20;;;17.20;98.00;;;;;;5071152;28;20476;-64
2023/06/03 06:53:04;;;;;;;6.17;3.27;;;17.30;98.00;;;;;;5071712;28;20469;-63
2023/06/03 06:55:41;;;;;;;7.03;3.37;;;17.40;98.00;;;;;;5047007;28;20458;-64
2023/06/03 06:58:10;;;;;;;8.03;4.10;;;17.40;98.00;;;;;;5034322;28;21056;-64
2023/06/03 07:00:39;;;;;;;7.80;4.30;;;17.50;98.00;;;;;;5051599;28;20516;-64
2023/06/03 07:03:08;;;;;;;7.97;4.00;;;17.70;98.00;;;;;;5051394;28;20940;-64
2023/06/03 07:05:35;;;;;;;8.00;4.10;;;17.80;98.00;;;;;;5051299;28;20454;-68
2023/06/03 07:08:02;;;;;;;8.70;4.10;;;17.90;98.00;;;;;;5051361;28;20457;-64
2023/06/03 07:10:29;;;;;;;10.50;4.40;;;17.90;98.00;;;;;;5051118;28;20453;-64
2023/06/03 07:12:57;;;;;;;8.30;3.43;;;18.00;98.00;;;;;;5051040;28;20454;-64
2023/06/03 07:15:24;;;;;;;8.83;3.70;;;18.20;98.00;;;;;;5051832;28;20457;-64
2023/06/03 07:17:54;;;;;;;7.20;3.70;;;18.40;98.00;;;;;;5051977;28;20527;-64
2023/06/03 07:20:23;;;;;;;6.10;3.70;;;18.60;98.00;;;;;;5051770;28;20519;-66
2023/06/03 07:22:50;;;;;;;7.43;3.90;;;18.70;98.00;;;;;;5052031;28;20457;-64
2023/06/03 07:25:30;;;;;;;5.43;3.30;;;18.80;98.00;;;;;;5051811;28;20458;-64
2023/06/03 07:27:57;;;;;;;5.63;3.20;;;18.90;98.00;;;;;;5052154;28;20458;-64
2023/06/03 07:30:24;;;;;;;7.50;4.00;;;18.90;98.00;;;;;;5034262;28;20466;-64
2023/06/03 07:32:58;;;;;;;8.20;4.40;;;19.00;98.00;;;;;;5052017;28;20457;-64
2023/06/03 07:35:25;;;;;;;11.43;4.40;;;19.00;98.00;;;;;;5051441;28;21045;-65
2023/06/03 07:37:52;;;;;;;9.37;3.50;;;19.10;98.00;;;;;;5051919;28;20493;-64
2023/06/03 07:40:19;;;;;;;6.13;3.53;;;19.30;98.00;;;;;;5051717;28;20843;-65
2023/06/03 07:42:49;;;;;;;7.67;4.03;;;19.40;98.00;;;;;;5051884;28;20465;-65
2023/06/03 07:45:16;;;;;;;7.20;3.87;;;19.50;98.00;;;;;;5051848;28;20468;-65
2023/06/03 07:47:43;;;;;;;9.50;4.10;;;19.70;98.00;;;;;;5051612;28;20476;-65
2023/06/03 07:50:23;;;;;;;9.27;4.50;;;19.80;98.00;;;;;;5051582;28;20515;-65
2023/06/03 07:52:55;;;;;;;11.10;3.80;;;19.70;97.80;;;;;;5034141;28;20531;-65
2023/06/03 07:55:22;;;;;;;6.13;4.20;;;19.80;98.00;;;;;;5051397;28;20476;-64
2023/06/03 07:57:49;;;;;;;7.10;4.03;;;19.90;98.00;;;;;;5051349;28;20478;-65
2023/06/03 08:00:18;;;;;;;7.93;4.10;;;20.10;97.30;;;;;;5051392;28;20835;-64
2023/06/03 08:02:45;;;;;;;6.70;3.70;;;20.10;98.00;;;;;;5050701;28;20997;-64
2023/06/03 08:05:13;;;;;;;10.20;4.20;;;20.20;96.70;;;;;;5052626;28;20892;-64
2023/06/03 08:07:45;;;;;;;6.37;3.87;;;20.40;98.00;;;;;;5050045;28;20841;-64
2023/06/03 08:10:23;;;;;;;8.97;4.00;;;20.50;97.30;;;;;;5053736;28;20458;-64
2023/06/03 08:12:50;;;;;;;6.10;3.93;;;20.60;97.40;;;;;;5055324;28;20544;-64
2023/06/03 08:15:26;;;;;;;10.70;4.63;;;20.60;96.90;;;;;;5055184;28;20532;-65
2023/06/03 08:17:54;;;;;;;6.83;4.20;;;20.70;97.20;;;;;;5055264;28;21062;-65
2023/06/03 08:20:24;;;;;;;7.47;4.37;;;20.70;95.90;;;;;;5055124;28;20446;-66
2023/06/03 08:22:53;;;;;;;9.97;4.60;;;20.80;96.30;;;;;;5055365;28;20938;-64
2023/06/03 08:25:20;;;;;;;7.23;4.17;;;20.90;96.60;;;;;;5054895;28;20939;-64
2023/06/03 08:27:48;;;;;;;12.67;4.97;;;21.20;95.90;;;;;;5055509;28;20539;-64
2023/06/03 08:30:16;;;;;;;7.20;4.27;;;21.20;95.80;;;;;;5055158;28;20461;-65
2023/06/03 08:32:43;;;;;;;6.63;4.00;;;21.30;95.30;;;;;;5055107;28;20515;-64
2023/06/03 08:35:12;;;;;;;7.10;4.17;;;21.40;96.90;;;;;;5055122;28;21163;-65
2023/06/03 08:37:39;;;;;;;8.90;4.10;;;21.50;96.30;;;;;;5054926;28;20489;-65
2023/06/03 08:40:10;;;;;;;10.63;5.13;;;21.70;94.90;;;;;;5054731;28;20465;-65
2023/06/03 08:42:43;;;;;;;8.70;4.10;;;21.80;93.90;;;;;;5037342;28;20488;-64
2023/06/03 08:45:11;;;;;;;8.07;4.27;;;21.90;93.70;;;;;;5054565;28;20546;-64
2023/06/03 08:47:59;;;;;;;13.83;4.60;;;22.00;94.10;;;;;;5054521;28;20978;-64
2023/06/03 08:50:28;;;;;;;6.87;4.40;;;22.00;93.80;;;;;;5052600;28;20978;-64
2023/06/03 08:52:56;;;;;;;9.50;4.43;;;22.10;93.60;;;;;;5054610;28;20934;-63
2023/06/03 08:55:29;;;;;;;8.90;4.33;;;22.30;94.90;;;;;;5054334;28;20449;-65
2023/06/03 08:58:04;;;;;;;8.33;4.50;;;22.40;93.70;;;;;;5054440;28;20501;-64
2023/06/03 09:00:33;;;;;;;9.13;4.30;;;22.50;92.70;;;;;;5054291;28;20793;-64
2023/06/03 09:03:01;;;;;;;8.17;4.50;;;22.70;92.60;;;;;;5036858;28;21024;-64
2023/06/03 09:05:29;;;;;;;8.17;4.90;;;22.70;91.30;;;;;;5054192;28;20511;-65
2023/06/03 09:07:57;;;;;;;7.63;4.30;;;22.70;91.20;;;;;;5054128;28;20466;-66
2023/06/03 09:10:26;;;;;;;8.50;4.33;;;22.80;91.50;;;;;;5054180;28;21005;-65
2023/06/03 09:12:57;;;;;;;8.60;4.67;;;22.90;91.30;;;;;;5054230;28;20552;-66
2023/06/03 09:15:24;;;;;;;7.97;4.70;;;23.10;90.70;;;;;;5053774;28;20458;-65
2023/06/03 09:17:52;;;;;;;9.63;4.60;;;23.20;92.70;;;;;;5054098;28;20508;-65
2023/06/03 09:20:19;;;;;;;9.67;4.43;;;23.40;90.00;;;;;;5054151;28;20458;-66
2023/06/03 09:22:47;;;;;;;9.20;4.63;;;23.50;90.50;;;;;;5054027;28;20450;-65
2023/06/03 09:25:15;;;;;;;9.40;4.90;;;23.70;92.40;;;;;;5054031;28;20553;-65
2023/06/03 09:27:42;;;;;;;7.80;4.50;;;23.90;92.00;;;;;;5053939;28;20450;-65
2023/06/03 09:30:12;;;;;;;8.03;4.47;;;24.00;88.90;;;;;;5053986;28;20946;-66
2023/06/03 09:32:39;;;;;;;11.27;4.87;;;24.10;89.90;;;;;;5054134;28;20511;-65
2023/06/03 09:35:09;;;;;;;7.23;4.10;;;24.20;90.50;;;;;;5053830;28;20454;-65
2023/06/03 09:37:36;;;;;;;10.63;4.80;;;24.20;89.70;;;;;;5053813;28;20461;-65
2023/06/03 09:40:05;;;;;;;8.37;4.50;;;24.30;89.50;;;;;;5053409;28;20963;-65
2023/06/03 09:42:42;;;;;;;11.23;4.77;;;24.40;90.20;;;;;;5052579;28;20465;-65
2023/06/03 09:45:27;;;;;;;8.87;4.33;;;24.50;90.40;;;;;;5053076;28;20887;-66
2023/06/03 09:47:54;;;;;;;12.33;4.60;;;24.60;89.30;;;;;;5052858;28;20457;-65
2023/06/03 09:50:24;;;;;;;8.17;4.73;;;24.60;88.60;;;;;;5052677;28;20450;-65
2023/06/03 09:52:51;;;;;;;11.73;4.80;;;24.70;85.90;;;;;;5052705;28;20544;-66
2023/06/03 09:55:19;;;;;;;7.97;4.50;;;24.70;87.90;;;;;;5052415;28;20537;-65
2023/06/03 09:58:03;;;;;;;6.27;4.13;;;24.70;86.30;;;;;;5052713;28;20556;-65
2023/06/03 10:00:34;;;;;;;7.60;4.67;;;24.80;86.50;;;;;;5051428;28;20527;-65
2023/06/03 10:03:08;;;;;;;9.97;5.37;;;25.00;88.00;;;;;;5052569;28;20500;-66
2023/06/03 10:05:36;;;;;;;10.67;4.63;;;25.10;87.30;;;;;;5052052;28;20453;-66
2023/06/03 10:08:04;;;;;;;12.30;5.03;;;25.20;87.40;;;;;;5052580;28;20465;-65
2023/06/03 10:10:31;;;;;;;6.97;4.90;;;25.30;86.40;;;;;;5052347;28;21054;-66
2023/06/03 10:12:58;;;;;;;9.83;4.60;;;25.40;86.40;;;;;;5052046;28;20456;-66
2023/06/03 10:15:37;;;;;;;9.90;4.87;;;25.50;87.10;;;;;;5052282;28;20461;-66
2023/06/03 10:18:06;;;;;;;7.00;4.30;;;25.70;87.10;;;;;;5052165;28;20485;-66
2023/06/03 10:20:37;;;;;;;9.07;4.80;;;25.80;86.80;;;;;;5051931;28;20458;-66
2023/06/03 10:23:06;;;;;;;8.10;4.57;;;26.00;83.70;;;;;;5052251;28;20520;-66
2023/06/03 10:25:38;;;;;;;8.57;4.53;;;25.90;84.80;;;;;;5051377;28;20541;-66
2023/06/03 10:28:05;;;;;;;9.07;4.53;;;25.70;84.60;;;;;;5034301;28;20535;-66
2023/06/03 10:30:45;;;;;;;7.43;4.13;;;25.30;85.40;;;;;;5052067;28;20454;-66
2023/06/03 10:33:12;;;;;;;10.63;4.57;;;25.40;86.10;;;;;;5051904;28;20457;-66
2023/06/03 10:35:39;;;;;;;9.70;5.10;;;25.40;84.90;;;;;;5051852;28;20523;-66
2023/06/03 10:38:08;;;;;;;7.10;4.30;;;25.60;84.90;;;;;;5051610;28;20479;-66
2023/06/03 10:40:35;;;;;;;9.00;4.60;;;25.90;85.30;;;;;;5051665;28;20466;-66
2023/06/03 10:43:03;;;;;;;9.40;4.70;;;26.20;86.50;;;;;;5051676;28;20545;-66
2023/06/03 10:45:31;;;;;;;10.03;4.87;;;26.40;84.20;;;;;;5051664;28;20462;-65
2023/06/03 10:48:04;;;;;;;10.77;4.80;;;26.70;84.40;;;;;;5051510;28;20460;-65
2023/06/03 10:50:41;;;;;;;8.57;4.97;;;27.00;83.90;;;;;;5051614;28;21098;-65
2023/06/03 10:53:21;;;;;;;9.50;4.80;;;27.20;82.50;;;;;;5051522;28;20465;-66
2023/06/03 10:56:03;;;;;;;9.20;5.40;;;27.20;82.40;;;;;;5051355;28;20457;-65
2023/06/03 10:58:33;;;;;;;7.57;4.80;;;27.30;83.10;;;;;;5051413;28;20547;-66
2023/06/03 11:01:02;;;;;;;11.87;5.33;;;27.40;82.00;;;;;;5051296;28;20497;-68
2023/06/03 11:03:34;;;;;;;7.47;4.87;;;27.60;81.50;;;;;;5051381;28;20511;-65
2023/06/03 11:06:47;;;;;;;11.30;4.57;;;27.80;80.90;;;;;;5051381;28;20537;-66
2023/06/03 11:09:29;;;;;;;8.00;5.00;;;28.00;81.30;;;;;;5026848;28;20507;-66
2023/06/03 11:12:05;;;;;;;10.20;5.40;;;28.20;80.60;;;;;;5051116;28;20979;-66
2023/06/03 11:14:58;;;;;;;9.50;5.13;;;28.40;80.90;;;;;;5051177;28;20536;-66
2023/06/03 11:17:28;;;;;;;10.50;5.00;;;28.10;79.60;;;;;;5051197;28;20458;-66
2023/06/03 11:20:00;;;;;;;7.80;4.97;;;27.60;80.70;;;;;;5051140;28;20493;-66
2023/06/03 11:22:46;;;;;;;10.23;5.13;;;27.30;79.60;;;;;;5051213;28;20457;-66
2023/06/03 11:25:28;;;;;;;12.50;4.90;;;27.00;81.30;;;;;;5051242;28;21021;-66
2023/06/03 11:28:34;;;;;;;11.77;6.13;;;26.80;81.70;;;;;;5049686;28;20453;-66
2023/06/03 11:31:04;;;;;;;8.10;4.90;;;27.10;82.10;;;;;;5051211;28;20477;-66
2023/06/03 11:33:31;;;;;;;11.43;5.70;;;27.70;81.30;;;;;;5050980;28;20556;-66
2023/06/03 11:36:19;;;;;;;8.73;5.30;;;28.10;79.90;;;;;;5050976;28;20549;-66
2023/06/03 11:38:59;;;;;;;7.47;4.50;;;28.40;79.10;;;;;;5054737;28;20481;-66
2023/06/03 11:41:59;;;;;;;9.40;4.93;;;29.20;77.90;;;;;;5055067;28;20801;-65
2023/06/03 11:44:26;;;;;;;7.63;4.70;;;29.20;76.70;;;;;;5053103;28;20473;-65
2023/06/03 11:46:53;;;;;;;8.20;5.10;;;28.70;77.40;;;;;;5055048;28;20480;-65
2023/06/03 11:49:22;;;;;;;9.37;5.20;;;28.20;79.50;;;;;;5037411;28;20454;-65
2023/06/03 11:51:53;;;;;;;10.53;5.20;;;27.80;77.90;;;;;;5055030;28;20884;-65
2023/06/03 11:54:21;;;;;;;8.70;5.10;;;27.50;78.60;;;;;;5054871;28;20552;-66
2023/06/03 11:56:50;;;;;;;7.83;4.83;;;27.50;79.20;;;;;;5054839;28;20493;-65
2023/06/03 11:59:21;;;;;;;11.13;5.37;;;27.70;79.20;;;;;;5054515;28;20481;-67
2023/06/03 12:01:58;;;;;;;7.90;4.80;;;27.50;79.00;;;;;;5054820;28;20523;-66
2023/06/03 12:04:25;;;;;;;8.57;5.00;;;27.20;80.40;;;;;;5054692;28;20530;-66
2023/06/03 12:06:54;;;;;;;10.90;4.97;;;27.00;80.40;;;;;;5054805;28;20457;-66
2023/06/03 12:09:23;;;;;;;7.87;4.77;;;26.80;79.80;;;;;;5054664;28;20453;-68
2023/06/03 12:11:50;;;;;;;9.43;4.80;;;27.10;81.00;;;;;;5037289;28;20449;-67
2023/06/03 12:14:29;;;;;;;8.10;4.20;;;27.70;78.60;;;;;;5054476;28;20462;-66
2023/06/03 12:16:57;;;;;;;7.73;4.60;;;28.40;78.90;;;;;;5054672;28;20462;-67
2023/06/03 12:19:25;;;;;;;11.83;5.07;;;29.10;77.10;;;;;;5054520;28;20489;-67
2023/06/03 12:21:58;;;;;;;15.83;4.90;;;29.60;74.60;;;;;;5054485;28;20453;-67
2023/06/03 12:24:30;;;;;;;6.33;4.53;;;29.40;74.70;;;;;;5054323;28;20560;-67
2023/06/03 12:26:58;;;;;;;9.33;5.03;;;29.10;74.70;;;;;;5054189;28;20552;-66
2023/06/03 12:29:26;;;;;;;13.40;5.40;;;28.80;75.90;;;;;;5054135;28;20450;-68
2023/06/03 12:32:00;;;;;;;7.70;4.60;;;29.10;74.60;;;;;;5054255;28;20456;-66
2023/06/03 12:34:33;;;;;;;10.83;5.10;;;29.60;73.40;;;;;;5054094;28;20502;-67
2023/06/03 12:37:03;;;;;;;7.70;4.60;;;29.90;73.20;;;;;;5054126;28;20454;-67
2023/06/03 12:39:47;;;;;;;6.40;4.70;;;30.20;73.80;;;;;;5053744;28;20500;-66
2023/06/03 12:42:16;;;;;;;10.37;4.83;;;30.70;73.30;;;;;;5053978;28;20536;-66
2023/06/03 12:44:44;;;;;;;12.83;4.80;;;30.70;71.70;;;;;;5053959;28;20461;-66
2023/06/03 12:47:11;;;;;;;7.37;4.70;;;30.80;73.50;;;;;;5053853;28;21022;-68
2023/06/03 12:49:38;;;;;;;9.90;4.73;;;31.10;72.60;;;;;;5053132;28;20462;-66
2023/06/03 12:52:18;;;;;;;9.20;5.03;;;31.50;70.70;;;;;;5053692;28;20461;-66
2023/06/03 12:54:50;;;;;;;7.90;4.63;;;31.60;71.70;;;;;;5053630;28;20461;-66
2023/06/03 12:57:18;;;;;;;7.77;4.87;;;31.90;70.60;;;;;;5053731;28;20524;-66
2023/06/03 13:00:07;;;;;;;8.87;4.87;;;31.90;68.60;;;;;;5053617;28;20676;-66